createdAt,value
2023-03-11T00:00:18.774Z,8.40
2023-03-11T00:03:07.819Z,8.40
2023-03-11T00:05:38.549Z,8.30
2023-03-11T00:08:06.891Z,8.30
2023-03-11T00:10:42.517Z,8.30
2023-03-11T00:13:11.432Z,8.30
2023-03-11T00:15:39.464Z,8.40
2023-03-11T00:18:06.607Z,8.40
2023-03-11T00:20:40.527Z,8.40
2023-03-11T00:23:08.931Z,8.50
2023-03-11T00:25:38.250Z,8.50
2023-03-11T00:28:11.176Z,8.50
2023-03-11T00:30:40.287Z,8.50
2023-03-11T00:33:08.382Z,8.50
2023-03-11T00:35:36.211Z,8.50
2023-03-11T00:38:06.004Z,8.50
2023-03-11T00:40:35.201Z,8.50
2023-03-11T00:43:03.298Z,8.40
2023-03-11T00:45:31.345Z,8.40
2023-03-11T00:47:58.587Z,8.30
2023-03-11T00:50:29.621Z,8.20
2023-03-11T00:52:57.253Z,8.20
2023-03-11T00:55:27.244Z,8.10
2023-03-11T00:57:59.980Z,8.10
2023-03-11T01:00:29.138Z,8.20
2023-03-11T01:02:57.016Z,8.20
2023-03-11T01:05:28.336Z,8.20
2023-03-11T01:07:55.340Z,8.20
2023-03-11T01:10:22.697Z,8.10
2023-03-11T01:12:49.776Z,8.00
2023-03-11T01:15:27.246Z,7.90
2023-03-11T01:17:54.252Z,7.90
2023-03-11T01:20:21.716Z,7.90
2023-03-11T01:22:49.264Z,7.90
2023-03-11T01:25:18.814Z,7.90
2023-03-11T01:27:45.787Z,7.80
2023-03-11T01:30:22.692Z,7.80
2023-03-11T01:32:50.639Z,7.70
2023-03-11T01:35:20.450Z,7.70
2023-03-11T01:37:47.733Z,7.70
2023-03-11T01:40:19.600Z,7.60
2023-03-11T01:42:46.701Z,7.60
2023-03-11T01:45:41.862Z,7.50
2023-03-11T01:48:10.211Z,7.50
2023-03-11T01:50:42.353Z,7.50
2023-03-11T01:53:10.997Z,7.40
2023-03-11T01:55:38.842Z,7.40
2023-03-11T01:58:09.161Z,7.30
2023-03-11T02:00:37.917Z,7.30
2023-03-11T02:03:14.431Z,7.10
2023-03-11T02:05:42.334Z,7.10
2023-03-11T02:08:09.793Z,7.10
2023-03-11T02:10:40.888Z,7.00
2023-03-11T02:13:08.308Z,7.00
2023-03-11T02:15:35.597Z,6.90
2023-03-11T02:18:06.137Z,6.80
2023-03-11T02:20:45.615Z,6.70
2023-03-11T02:23:14.835Z,6.60
2023-03-11T02:25:52.745Z,6.60
2023-03-11T02:28:21.165Z,6.60
2023-03-11T02:30:49.563Z,6.60
2023-03-11T02:33:18.410Z,6.50
2023-03-11T02:35:45.705Z,6.50
2023-03-11T02:38:14.082Z,6.50
2023-03-11T02:40:50.071Z,6.50
2023-03-11T02:43:22.563Z,6.40
2023-03-11T02:45:50.288Z,6.40
2023-03-11T02:48:18.794Z,6.40
2023-03-11T02:50:46.868Z,6.40
2023-03-11T02:53:14.302Z,6.30
2023-03-11T02:55:41.608Z,6.30
2023-03-11T02:58:08.569Z,6.20
2023-03-11T03:00:35.890Z,6.10
2023-03-11T03:03:03.004Z,6.10
2023-03-11T03:05:30.507Z,6.00
2023-03-11T03:07:57.496Z,6.00
2023-03-11T03:10:25.009Z,5.90
2023-03-11T03:12:52.042Z,5.90
2023-03-11T03:15:19.475Z,6.00
2023-03-11T03:17:46.736Z,5.90
2023-03-11T03:20:15.251Z,6.00
2023-03-11T03:22:43.261Z,6.10
2023-03-11T03:25:11.473Z,6.00
2023-03-11T03:27:38.886Z,6.00
2023-03-11T03:30:07.474Z,6.10
2023-03-11T03:32:34.799Z,6.00
2023-03-11T03:35:02.765Z,6.10
2023-03-11T03:37:33.643Z,6.10
2023-03-11T03:40:01.361Z,6.00
2023-03-11T03:42:28.645Z,6.00
2023-03-11T03:44:55.963Z,6.00
2023-03-11T03:47:22.944Z,5.90
2023-03-11T03:49:50.173Z,5.90
2023-03-11T03:52:17.164Z,5.80
2023-03-11T03:54:44.710Z,5.80
2023-03-11T03:57:11.756Z,5.80
2023-03-11T03:59:39.013Z,5.80
2023-03-11T04:02:06.127Z,5.90
2023-03-11T04:04:33.507Z,5.90
2023-03-11T04:07:00.574Z,5.90
2023-03-11T04:09:27.897Z,5.90
2023-03-11T04:11:54.844Z,5.90
2023-03-11T04:14:22.051Z,6.00
2023-03-11T04:16:49.063Z,6.00
2023-03-11T04:19:16.269Z,6.00
2023-03-11T04:21:43.420Z,6.10
2023-03-11T04:24:10.654Z,6.10
2023-03-11T04:26:37.850Z,6.10
2023-03-11T04:29:05.135Z,6.00
2023-03-11T04:31:32.115Z,6.00
2023-03-11T04:33:59.398Z,6.00
2023-03-11T04:36:26.330Z,6.00
2023-03-11T04:38:56.603Z,6.00
2023-03-11T04:41:24.104Z,6.00
2023-03-11T04:43:51.349Z,6.00
2023-03-11T04:46:18.357Z,6.10
2023-03-11T04:48:45.765Z,6.10
2023-03-11T04:51:12.755Z,6.00
2023-03-11T04:53:40.010Z,5.80
2023-03-11T04:56:07.207Z,5.60
2023-03-11T04:58:34.493Z,5.50
2023-03-11T05:01:01.436Z,5.50
2023-03-11T05:03:28.744Z,5.50
2023-03-11T05:06:00.190Z,5.60
2023-03-11T05:08:27.526Z,5.60
2023-03-11T05:10:54.536Z,5.70
2023-03-11T05:13:22.195Z,5.80
2023-03-11T05:15:49.295Z,5.80
2023-03-11T05:18:16.737Z,5.90
2023-03-11T05:20:43.773Z,5.90
2023-03-11T05:23:13.845Z,6.00
2023-03-11T05:25:40.920Z,6.00
2023-03-11T05:28:08.236Z,6.00
2023-03-11T05:30:35.221Z,6.00
2023-03-11T05:33:02.463Z,6.00
2023-03-11T05:35:29.447Z,5.90
2023-03-11T05:37:56.726Z,6.00
2023-03-11T05:40:23.750Z,6.00
2023-03-11T05:42:51.858Z,6.10
2023-03-11T05:45:18.892Z,6.10
2023-03-11T05:47:46.388Z,6.10
2023-03-11T05:50:13.506Z,6.20
2023-03-11T05:52:40.806Z,6.20
2023-03-11T05:55:09.912Z,6.20
2023-03-11T05:57:37.308Z,6.30
2023-03-11T06:00:07.265Z,6.40
2023-03-11T06:02:34.485Z,6.40
2023-03-11T06:05:01.580Z,6.50
2023-03-11T06:07:28.893Z,6.60
2023-03-11T06:09:55.857Z,6.80
2023-03-11T06:12:23.085Z,7.00
2023-03-11T06:14:50.061Z,7.10
2023-03-11T06:17:17.248Z,7.20
2023-03-11T06:19:44.202Z,7.30
2023-03-11T06:22:11.648Z,7.30
2023-03-11T06:24:38.587Z,7.30
2023-03-11T06:27:05.895Z,7.40
2023-03-11T06:29:32.891Z,7.40
2023-03-11T06:32:00.280Z,7.40
2023-03-11T06:34:27.414Z,7.50
2023-03-11T06:36:54.997Z,7.60
2023-03-11T06:39:22.009Z,7.60
2023-03-11T06:41:49.302Z,7.70
2023-03-11T06:44:16.301Z,7.70
2023-03-11T06:46:43.661Z,7.80
2023-03-11T06:49:10.600Z,7.90
2023-03-11T06:51:37.826Z,8.00
2023-03-11T06:54:05.552Z,8.10
2023-03-11T06:56:32.822Z,8.30
2023-03-11T06:58:59.764Z,8.40
2023-03-11T07:01:28.238Z,8.50
2023-03-11T07:03:55.284Z,8.50
2023-03-11T07:06:25.028Z,8.60
2023-03-11T07:08:52.906Z,8.50
2023-03-11T07:11:23.711Z,8.50
2023-03-11T07:13:51.573Z,8.50
2023-03-11T07:16:22.134Z,8.60
2023-03-11T07:18:50.767Z,8.60
2023-03-11T07:21:21.288Z,8.70
2023-03-11T07:23:52.564Z,8.50
2023-03-11T07:26:20.188Z,8.40
2023-03-11T07:28:49.389Z,8.20
2023-03-11T07:31:23.423Z,8.30
2023-03-11T07:33:50.876Z,8.30
2023-03-11T07:36:23.526Z,8.20
2023-03-11T07:38:58.338Z,8.20
2023-03-11T07:41:26.905Z,8.30
2023-03-11T07:43:56.018Z,8.40
2023-03-11T07:46:24.780Z,8.40
2023-03-11T07:48:52.763Z,8.30
2023-03-11T07:51:28.973Z,8.20
2023-03-11T07:53:58.510Z,8.30
2023-03-11T07:56:28.295Z,8.30
2023-03-11T07:58:55.464Z,8.30
2023-03-11T08:01:25.635Z,8.30
2023-03-11T08:03:58.545Z,8.20
2023-03-11T08:06:31.408Z,8.20
2023-03-11T08:09:00.396Z,8.40
2023-03-11T08:11:28.055Z,8.40
2023-03-11T08:13:55.223Z,8.50
2023-03-11T08:16:22.802Z,8.40
2023-03-11T08:18:52.087Z,8.30
2023-03-11T08:21:22.673Z,8.40
2023-03-11T08:23:50.191Z,8.20
2023-03-11T08:26:20.374Z,8.20
2023-03-11T08:28:47.979Z,8.10
2023-03-11T08:31:18.298Z,8.10
2023-03-11T08:33:49.924Z,8.20
2023-03-11T08:36:18.393Z,8.30
2023-03-11T08:38:45.680Z,8.30
2023-03-11T08:41:13.329Z,8.20
2023-03-11T08:43:41.374Z,8.30
2023-03-11T08:46:11.514Z,8.30
2023-03-11T08:48:38.837Z,8.20
2023-03-11T08:51:14.205Z,8.20
2023-03-11T08:53:41.871Z,8.20
2023-03-11T08:56:09.414Z,8.20
2023-03-11T08:58:36.611Z,8.20
2023-03-11T09:01:05.096Z,8.10
2023-03-11T09:03:33.922Z,8.00
2023-03-11T09:06:04.169Z,8.00
2023-03-11T09:08:31.208Z,8.00
2023-03-11T09:10:58.979Z,8.00
2023-03-11T09:13:26.242Z,8.10
2023-03-11T09:15:53.945Z,7.90
2023-03-11T09:18:21.250Z,7.80
2023-03-11T09:20:48.646Z,7.70
2023-03-11T09:23:17.617Z,7.70
2023-03-11T09:25:45.406Z,7.70
2023-03-11T09:28:12.382Z,7.80
2023-03-11T09:30:39.860Z,7.80
2023-03-11T09:33:07.023Z,7.80
2023-03-11T09:35:34.687Z,7.70
2023-03-11T09:38:01.689Z,7.70
2023-03-11T09:40:41.897Z,7.50
2023-03-11T09:43:44.450Z,7.60
2023-03-11T09:46:35.941Z,7.60
2023-03-11T09:49:30.014Z,7.60
2023-03-11T09:52:15.299Z,7.60
2023-03-11T09:54:52.429Z,7.50
2023-03-11T09:57:33.209Z,7.30
2023-03-11T10:00:04.313Z,7.10
2023-03-11T10:02:32.655Z,6.90
2023-03-11T10:05:07.716Z,6.60
2023-03-11T10:07:41.292Z,6.40
2023-03-11T10:10:14.044Z,6.20
2023-03-11T10:13:03.039Z,5.70
2023-03-11T10:15:57.910Z,5.40
2023-03-11T10:19:02.947Z,5.30
2023-03-11T10:21:49.801Z,5.10
2023-03-11T10:25:07.648Z,5.10
2023-03-11T10:28:00.116Z,5.00
2023-03-11T10:30:41.030Z,4.70
2023-03-11T10:33:14.389Z,4.70
2023-03-11T10:35:46.193Z,4.60
2023-03-11T10:38:19.036Z,4.60
2023-03-11T10:40:48.420Z,4.30
2023-03-11T10:43:32.827Z,4.20
2023-03-11T10:46:00.372Z,3.90
2023-03-11T10:48:27.549Z,3.90
2023-03-11T10:51:28.029Z,3.90
2023-03-11T10:53:57.419Z,3.70
2023-03-11T10:56:40.556Z,3.60
2023-03-11T10:59:27.789Z,3.60
2023-03-11T11:02:00.500Z,3.60
2023-03-11T11:04:40.166Z,3.60
2023-03-11T11:07:20.998Z,3.50
2023-03-11T11:10:08.212Z,3.50
2023-03-11T11:13:02.114Z,3.30
2023-03-11T11:15:40.522Z,3.30
2023-03-11T11:18:18.652Z,3.20
2023-03-11T11:20:56.041Z,3.20
2023-03-11T11:23:44.333Z,3.10
2023-03-11T11:26:25.976Z,3.10
2023-03-11T11:29:12.380Z,3.10
2023-03-11T11:31:46.882Z,3.10
2023-03-11T11:34:30.847Z,2.90
2023-03-11T11:37:00.608Z,3.00
2023-03-11T11:39:32.260Z,3.10
2023-03-11T11:42:01.173Z,3.00
2023-03-11T11:44:33.576Z,3.00
2023-03-11T11:47:25.506Z,3.10
2023-03-11T11:49:56.882Z,3.10
2023-03-11T11:52:37.178Z,3.10
2023-03-11T11:55:13.301Z,3.20
2023-03-11T11:57:40.455Z,3.20
2023-03-11T12:00:20.483Z,2.90
2023-03-11T12:03:20.951Z,2.90
2023-03-11T12:06:02.068Z,3.00
2023-03-11T12:08:48.208Z,2.90
2023-03-11T12:11:26.856Z,3.00
2023-03-11T12:14:07.224Z,2.90
2023-03-11T12:17:16.877Z,2.90
2023-03-11T12:19:54.798Z,3.10
2023-03-11T12:22:46.529Z,3.10
2023-03-11T12:25:37.509Z,2.90
2023-03-11T12:28:22.598Z,2.90
2023-03-11T12:30:58.291Z,2.80
2023-03-11T12:33:33.791Z,2.70
2023-03-11T12:36:02.136Z,2.40
2023-03-11T12:38:40.775Z,2.10
2023-03-11T12:41:16.796Z,1.90
2023-03-11T12:43:43.946Z,1.80
2023-03-11T12:46:17.619Z,1.80
2023-03-11T12:49:09.403Z,2.00
2023-03-11T12:51:37.644Z,1.90
2023-03-11T12:54:32.438Z,1.80
2023-03-11T12:57:16.828Z,1.70
2023-03-11T13:00:12.449Z,1.70
2023-03-11T13:03:17.055Z,1.70
2023-03-11T13:05:55.457Z,1.70
2023-03-11T13:08:45.718Z,1.70
2023-03-11T13:11:31.682Z,1.60
2023-03-11T13:14:19.913Z,1.60
2023-03-11T13:16:47.510Z,1.60
2023-03-11T13:19:26.870Z,1.70
2023-03-11T13:21:55.211Z,1.70
2023-03-11T13:24:41.328Z,1.80
2023-03-11T13:27:28.375Z,1.70
2023-03-11T13:30:04.825Z,1.70
2023-03-11T13:32:55.044Z,1.60
2023-03-11T13:35:45.177Z,1.60
2023-03-11T13:38:33.936Z,1.60
2023-03-11T13:41:03.355Z,1.50
2023-03-11T13:43:30.649Z,1.40
2023-03-11T13:46:02.314Z,1.30
2023-03-11T13:48:40.673Z,1.30
2023-03-11T13:51:22.665Z,1.30
2023-03-11T13:54:08.867Z,1.40
2023-03-11T13:56:44.746Z,1.40
2023-03-11T13:59:22.884Z,1.30
2023-03-11T14:02:14.133Z,1.30
2023-03-11T14:04:47.964Z,1.30
2023-03-11T14:07:26.608Z,1.30
2023-03-11T14:10:24.109Z,1.20
2023-03-11T14:12:51.506Z,1.30
2023-03-11T14:15:26.935Z,1.30
2023-03-11T14:18:14.548Z,1.30
2023-03-11T14:20:44.174Z,1.30
2023-03-11T14:23:18.684Z,1.30
2023-03-11T14:25:46.504Z,1.30
2023-03-11T14:28:20.285Z,1.30
2023-03-11T14:31:08.114Z,1.30
2023-03-11T14:33:35.185Z,1.40
2023-03-11T14:36:05.404Z,1.40
2023-03-11T14:38:32.953Z,1.40
2023-03-11T14:41:03.106Z,1.50
2023-03-11T14:43:37.730Z,1.40
2023-03-11T14:46:06.916Z,1.40
2023-03-11T14:48:40.816Z,1.40
2023-03-11T14:51:22.473Z,1.40
2023-03-11T14:54:08.462Z,1.40
2023-03-11T14:56:40.277Z,1.40
2023-03-11T14:59:12.598Z,1.40
2023-03-11T15:01:43.764Z,1.40
2023-03-11T15:04:35.673Z,1.50
2023-03-11T15:07:05.049Z,1.60
2023-03-11T15:09:32.415Z,1.60
2023-03-11T15:12:01.694Z,1.60
2023-03-11T15:14:31.809Z,1.60
2023-03-11T15:17:35.656Z,1.60
2023-03-11T15:20:24.330Z,1.60
2023-03-11T15:22:58.381Z,1.60
2023-03-11T15:25:25.488Z,1.60
2023-03-11T15:27:52.795Z,1.60
2023-03-11T15:30:21.612Z,1.70
2023-03-11T15:32:49.217Z,1.60
2023-03-11T15:35:28.405Z,1.70
2023-03-11T15:38:25.816Z,1.80
2023-03-11T15:40:55.650Z,1.80
2023-03-11T15:43:30.724Z,1.70
2023-03-11T15:46:00.724Z,1.70
2023-03-11T15:48:29.927Z,1.70
2023-03-11T15:50:59.158Z,1.70
2023-03-11T15:53:28.571Z,1.70
2023-03-11T15:56:06.644Z,1.70
2023-03-11T15:58:37.072Z,1.70
2023-03-11T16:01:04.374Z,1.70
2023-03-11T16:03:33.998Z,1.70
2023-03-11T16:06:01.019Z,1.70
2023-03-11T16:08:28.356Z,1.70
2023-03-11T16:10:55.415Z,1.70
2023-03-11T16:13:22.650Z,1.70
2023-03-11T16:15:49.652Z,1.70
2023-03-11T16:18:17.087Z,1.70
2023-03-11T16:20:50.070Z,1.70
2023-03-11T16:23:26.239Z,1.60
2023-03-11T16:25:59.697Z,1.60
2023-03-11T16:28:27.270Z,1.60
2023-03-11T16:30:54.388Z,1.70
2023-03-11T16:33:21.595Z,1.70
2023-03-11T16:35:48.651Z,1.70
2023-03-11T16:38:17.762Z,1.60
2023-03-11T16:40:44.916Z,1.60
2023-03-11T16:43:16.108Z,1.60
2023-03-11T16:45:43.081Z,1.60
2023-03-11T16:48:10.309Z,1.60
2023-03-11T16:50:37.798Z,1.60
2023-03-11T16:53:05.145Z,1.50
2023-03-11T16:55:32.117Z,1.50
2023-03-11T16:57:59.440Z,1.50
2023-03-11T17:00:26.724Z,1.50
2023-03-11T17:02:54.389Z,1.50
2023-03-11T17:05:22.003Z,1.40
2023-03-11T17:07:53.367Z,1.40
2023-03-11T17:10:20.535Z,1.40
2023-03-11T17:12:47.803Z,1.40
2023-03-11T17:15:14.826Z,1.30
2023-03-11T17:17:42.042Z,1.40
2023-03-11T17:20:10.078Z,1.30
2023-03-11T17:22:37.417Z,1.30
2023-03-11T17:25:05.149Z,1.30
2023-03-11T17:27:33.204Z,1.20
2023-03-11T17:30:07.095Z,1.10
2023-03-11T17:32:34.605Z,1.20
2023-03-11T17:35:01.709Z,1.20
2023-03-11T17:37:28.988Z,1.20
2023-03-11T17:39:55.995Z,1.20
2023-03-11T17:42:23.558Z,1.30
2023-03-11T17:44:52.189Z,1.30
2023-03-11T17:47:20.577Z,1.40
2023-03-11T17:49:49.010Z,1.40
2023-03-11T17:52:16.241Z,1.40
2023-03-11T17:54:43.370Z,1.50
2023-03-11T17:57:10.740Z,1.40
2023-03-11T17:59:37.860Z,1.40
2023-03-11T18:02:05.236Z,1.40
2023-03-11T18:04:32.241Z,1.40
2023-03-11T18:06:59.630Z,1.40
2023-03-11T18:09:26.945Z,1.30
2023-03-11T18:11:54.325Z,1.30
2023-03-11T18:14:21.324Z,1.30
2023-03-11T18:16:48.624Z,1.30
2023-03-11T18:19:16.010Z,1.30
2023-03-11T18:21:44.534Z,1.20
2023-03-11T18:24:11.667Z,1.20
2023-03-11T18:26:38.956Z,1.20
2023-03-11T18:29:06.114Z,1.20
2023-03-11T18:31:33.835Z,1.20
2023-03-11T18:34:03.414Z,1.10
2023-03-11T18:36:37.405Z,1.10
2023-03-11T18:39:04.990Z,1.10
2023-03-11T18:41:34.617Z,1.00
2023-03-11T18:44:02.586Z,1.00
2023-03-11T18:46:32.266Z,1.00
2023-03-11T18:49:00.970Z,1.00
2023-03-11T18:51:30.915Z,0.90
2023-03-11T18:53:58.981Z,0.90
2023-03-11T18:56:26.999Z,0.90
2023-03-11T18:58:55.749Z,1.00
2023-03-11T19:01:23.684Z,1.00
2023-03-11T19:03:53.358Z,0.90
2023-03-11T19:06:21.804Z,0.80
2023-03-11T19:08:49.612Z,0.90
2023-03-11T19:11:19.817Z,0.90
2023-03-11T19:13:48.024Z,0.90
2023-03-11T19:16:18.604Z,0.90
2023-03-11T19:18:45.899Z,0.80
2023-03-11T19:21:14.996Z,0.80
2023-03-11T19:23:42.462Z,0.80
2023-03-11T19:26:09.865Z,0.80
2023-03-11T19:28:37.087Z,0.80
2023-03-11T19:31:05.207Z,0.70
2023-03-11T19:33:34.276Z,0.70
2023-03-11T19:36:04.815Z,0.60
2023-03-11T19:38:32.162Z,0.70
2023-03-11T19:41:05.693Z,0.70
2023-03-11T19:43:33.257Z,0.70
2023-03-11T19:46:00.521Z,0.60
2023-03-11T19:48:27.648Z,0.70
2023-03-11T19:50:54.848Z,0.60
2023-03-11T19:53:23.536Z,0.60
2023-03-11T19:55:53.587Z,0.70
2023-03-11T19:58:21.900Z,0.70
2023-03-11T20:00:49.209Z,0.60
2023-03-11T20:03:18.152Z,0.60
2023-03-11T20:05:46.887Z,0.60
2023-03-11T20:08:16.450Z,0.60
2023-03-11T20:10:46.589Z,0.40
2023-03-11T20:13:14.675Z,0.50
2023-03-11T20:15:41.967Z,0.50
2023-03-11T20:18:09.192Z,0.50
2023-03-11T20:20:39.341Z,0.50
2023-03-11T20:23:06.677Z,0.50
2023-03-11T20:25:35.036Z,0.50
2023-03-11T20:28:02.267Z,0.40
2023-03-11T20:30:29.646Z,0.40
2023-03-11T20:32:56.803Z,0.40
2023-03-11T20:35:24.328Z,0.40
2023-03-11T20:37:51.385Z,0.40
2023-03-11T20:40:19.368Z,0.40
2023-03-11T20:42:49.247Z,0.40
2023-03-11T20:45:21.747Z,0.30
2023-03-11T20:47:50.095Z,0.30
2023-03-11T20:50:17.458Z,0.20
2023-03-11T20:52:44.659Z,0.20
2023-03-11T20:55:12.351Z,0.10
2023-03-11T20:57:40.055Z,0.10
2023-03-11T21:00:11.621Z,0.00
2023-03-11T21:02:40.423Z,0.00
2023-03-11T21:05:09.523Z,0.10
2023-03-11T21:07:36.733Z,0.00
2023-03-11T21:10:06.050Z,0.10
2023-03-11T21:12:33.177Z,0.20
2023-03-11T21:15:00.646Z,0.20
2023-03-11T21:17:27.666Z,0.40
2023-03-11T21:19:55.065Z,0.50
2023-03-11T21:22:22.125Z,0.50
2023-03-11T21:24:55.707Z,0.40
2023-03-11T21:27:26.775Z,0.50
2023-03-11T21:29:56.026Z,0.50
2023-03-11T21:32:24.787Z,0.50
2023-03-11T21:34:55.904Z,0.50
2023-03-11T21:37:23.121Z,0.50
2023-03-11T21:39:50.566Z,0.50
2023-03-11T21:42:17.844Z,0.50
2023-03-11T21:44:45.500Z,0.40
2023-03-11T21:47:12.550Z,0.30
2023-03-11T21:49:39.843Z,0.20
2023-03-11T21:52:06.956Z,0.20
2023-03-11T21:54:34.286Z,0.20
2023-03-11T21:57:01.258Z,0.10
2023-03-11T21:59:29.801Z,0.30
2023-03-11T22:02:01.252Z,0.30
2023-03-11T22:04:30.546Z,0.20
2023-03-11T22:06:57.925Z,0.40
2023-03-11T22:09:26.299Z,0.40
2023-03-11T22:11:53.638Z,0.30
2023-03-11T22:14:21.070Z,0.40
2023-03-11T22:16:48.177Z,0.40
2023-03-11T22:19:15.601Z,0.40
2023-03-11T22:21:43.227Z,0.50
2023-03-11T22:24:10.626Z,0.40
2023-03-11T22:26:37.649Z,0.40
2023-03-11T22:29:06.172Z,0.50
2023-03-11T22:31:34.201Z,0.40
2023-03-11T22:34:01.483Z,0.40
2023-03-11T22:36:28.515Z,0.30
2023-03-11T22:38:56.918Z,0.20
2023-03-11T22:41:24.210Z,0.10
2023-03-11T22:43:51.531Z,0.20
2023-03-11T22:46:18.669Z,0.20
2023-03-11T22:48:46.382Z,0.10
2023-03-11T22:51:13.452Z,0.10
2023-03-11T22:53:41.054Z,0.10
2023-03-11T22:56:14.251Z,0.10
2023-03-11T22:58:42.267Z,0.00
2023-03-11T23:01:10.088Z,0.10
2023-03-11T23:03:38.149Z,0.10
2023-03-11T23:06:08.017Z,0.10
2023-03-11T23:08:35.860Z,0.10
2023-03-11T23:11:05.694Z,0.00
2023-03-11T23:13:35.620Z,0.00
2023-03-11T23:16:19.608Z,-0.10
2023-03-11T23:18:49.670Z,0.00
2023-03-11T23:21:27.441Z,0.00
2023-03-11T23:23:55.747Z,-0.10
2023-03-11T23:26:23.123Z,-0.20
2023-03-11T23:28:53.787Z,-0.30
2023-03-11T23:31:23.378Z,-0.20
2023-03-11T23:33:51.177Z,-0.30
2023-03-11T23:36:21.006Z,-0.20
2023-03-11T23:38:49.741Z,-0.20
2023-03-11T23:41:23.642Z,-0.20
2023-03-11T23:43:51.201Z,-0.30
2023-03-11T23:46:18.212Z,-0.40
2023-03-11T23:48:45.876Z,-0.40
2023-03-11T23:51:13.393Z,-0.40
2023-03-11T23:53:40.877Z,-0.40
2023-03-11T23:56:19.407Z,-0.40
2023-03-11T23:58:46.966Z,-0.40
